sensor_id;sensor_type;location;lat;lon;timestamp;P1;durP1;ratioP1;P2;durP2;ratioP2
65855;SDS011;52631;42.208;24.656;2023-12-20T00:02:18;18.55;;;8.57;;
65855;SDS011;52631;42.208;24.656;2023-12-20T00:04:43;18.60;;;8.70;;
65855;SDS011;52631;42.208;24.656;2023-12-20T00:07:08;19.27;;;9.13;;
65855;SDS011;52631;42.208;24.656;2023-12-20T00:09:34;16.55;;;8.52;;
65855;SDS011;52631;42.208;24.656;2023-12-20T00:11:59;25.92;;;10.55;;
65855;SDS011;52631;42.208;24.656;2023-12-20T00:14:24;18.67;;;9.70;;
65855;SDS011;52631;42.208;24.656;2023-12-20T00:16:50;19.65;;;9.02;;
65855;SDS011;52631;42.208;24.656;2023-12-20T00:19:15;21.42;;;9.95;;
65855;SDS011;52631;42.208;24.656;2023-12-20T00:21:42;18.45;;;10.32;;
65855;SDS011;52631;42.208;24.656;2023-12-20T00:24:07;19.95;;;12.80;;
65855;SDS011;52631;42.208;24.656;2023-12-20T00:26:33;21.20;;;11.52;;
65855;SDS011;52631;42.208;24.656;2023-12-20T00:28:59;26.35;;;12.82;;
65855;SDS011;52631;42.208;24.656;2023-12-20T00:31:24;37.40;;;14.00;;
65855;SDS011;52631;42.208;24.656;2023-12-20T00:33:50;28.88;;;12.25;;
65855;SDS011;52631;42.208;24.656;2023-12-20T00:36:15;28.90;;;12.63;;
65855;SDS011;52631;42.208;24.656;2023-12-20T00:38:40;26.67;;;12.23;;
65855;SDS011;52631;42.208;24.656;2023-12-20T00:41:06;15.52;;;8.70;;
65855;SDS011;52631;42.208;24.656;2023-12-20T00:43:31;26.88;;;10.88;;
65855;SDS011;52631;42.208;24.656;2023-12-20T00:45:57;30.13;;;12.23;;
65855;SDS011;52631;42.208;24.656;2023-12-20T00:48:22;20.48;;;9.55;;
65855;SDS011;52631;42.208;24.656;2023-12-20T00:50:48;16.50;;;8.65;;
65855;SDS011;52631;42.208;24.656;2023-12-20T00:53:13;17.40;;;8.63;;
65855;SDS011;52631;42.208;24.656;2023-12-20T00:55:38;15.40;;;8.45;;
65855;SDS011;52631;42.208;24.656;2023-12-20T00:58:04;16.73;;;9.18;;
65855;SDS011;52631;42.208;24.656;2023-12-20T01:00:29;20.17;;;9.95;;
65855;SDS011;52631;42.208;24.656;2023-12-20T01:02:54;14.45;;;8.32;;
65855;SDS011;52631;42.208;24.656;2023-12-20T01:05:20;18.00;;;9.18;;
65855;SDS011;52631;42.208;24.656;2023-12-20T01:07:48;25.00;;;11.40;;
65855;SDS011;52631;42.208;24.656;2023-12-20T01:10:14;23.02;;;9.77;;
65855;SDS011;52631;42.208;24.656;2023-12-20T01:12:39;25.08;;;11.15;;
65855;SDS011;52631;42.208;24.656;2023-12-20T01:15:05;19.60;;;9.98;;
65855;SDS011;52631;42.208;24.656;2023-12-20T01:17:30;23.08;;;10.55;;
65855;SDS011;52631;42.208;24.656;2023-12-20T01:19:56;25.23;;;13.30;;
65855;SDS011;52631;42.208;24.656;2023-12-20T01:22:21;16.90;;;8.70;;
65855;SDS011;52631;42.208;24.656;2023-12-20T01:24:46;19.02;;;9.07;;
65855;SDS011;52631;42.208;24.656;2023-12-20T01:27:12;12.75;;;6.75;;
65855;SDS011;52631;42.208;24.656;2023-12-20T01:29:37;11.80;;;5.90;;
65855;SDS011;52631;42.208;24.656;2023-12-20T01:32:03;11.07;;;6.00;;
65855;SDS011;52631;42.208;24.656;2023-12-20T01:34:29;15.02;;;6.55;;
65855;SDS011;52631;42.208;24.656;2023-12-20T01:36:54;12.13;;;6.05;;
65855;SDS011;52631;42.208;24.656;2023-12-20T01:39:20;10.63;;;5.63;;
65855;SDS011;52631;42.208;24.656;2023-12-20T01:41:45;11.85;;;6.00;;
65855;SDS011;52631;42.208;24.656;2023-12-20T01:44:10;11.45;;;5.95;;
65855;SDS011;52631;42.208;24.656;2023-12-20T01:46:36;12.55;;;5.82;;
65855;SDS011;52631;42.208;24.656;2023-12-20T01:49:01;11.73;;;5.43;;
65855;SDS011;52631;42.208;24.656;2023-12-20T01:51:27;9.35;;;5.13;;
65855;SDS011;52631;42.208;24.656;2023-12-20T01:53:54;9.43;;;5.32;;
65855;SDS011;52631;42.208;24.656;2023-12-20T01:56:20;12.48;;;4.60;;
65855;SDS011;52631;42.208;24.656;2023-12-20T01:58:46;9.70;;;5.38;;
65855;SDS011;52631;42.208;24.656;2023-12-20T02:01:13;10.02;;;5.22;;
65855;SDS011;52631;42.208;24.656;2023-12-20T02:03:39;11.45;;;5.97;;
65855;SDS011;52631;42.208;24.656;2023-12-20T02:06:08;9.88;;;5.43;;
65855;SDS011;52631;42.208;24.656;2023-12-20T02:08:34;12.98;;;6.60;;
65855;SDS011;52631;42.208;24.656;2023-12-20T02:11:00;13.95;;;5.93;;
65855;SDS011;52631;42.208;24.656;2023-12-20T02:13:25;13.63;;;6.13;;
65855;SDS011;52631;42.208;24.656;2023-12-20T02:15:51;11.20;;;6.20;;
65855;SDS011;52631;42.208;24.656;2023-12-20T02:18:17;10.38;;;6.13;;
65855;SDS011;52631;42.208;24.656;2023-12-20T02:20:42;14.90;;;6.70;;
65855;SDS011;52631;42.208;24.656;2023-12-20T02:23:08;10.90;;;6.43;;
65855;SDS011;52631;42.208;24.656;2023-12-20T02:25:33;12.18;;;6.88;;
65855;SDS011;52631;42.208;24.656;2023-12-20T02:27:59;12.95;;;6.45;;
65855;SDS011;52631;42.208;24.656;2023-12-20T02:30:24;12.63;;;6.82;;
65855;SDS011;52631;42.208;24.656;2023-12-20T02:32:49;11.52;;;6.22;;
65855;SDS011;52631;42.208;24.656;2023-12-20T02:35:15;10.82;;;6.63;;
65855;SDS011;52631;42.208;24.656;2023-12-20T02:37:40;13.07;;;6.90;;
65855;SDS011;52631;42.208;24.656;2023-12-20T02:40:06;14.68;;;7.38;;
65855;SDS011;52631;42.208;24.656;2023-12-20T02:42:33;14.82;;;7.38;;
65855;SDS011;52631;42.208;24.656;2023-12-20T02:44:58;17.35;;;7.82;;
65855;SDS011;52631;42.208;24.656;2023-12-20T02:47:23;14.70;;;8.50;;
65855;SDS011;52631;42.208;24.656;2023-12-20T02:49:49;15.10;;;7.57;;
65855;SDS011;52631;42.208;24.656;2023-12-20T02:52:14;14.13;;;7.88;;
65855;SDS011;52631;42.208;24.656;2023-12-20T02:54:40;14.90;;;7.63;;
65855;SDS011;52631;42.208;24.656;2023-12-20T02:57:05;15.00;;;7.45;;
65855;SDS011;52631;42.208;24.656;2023-12-20T02:59:31;14.57;;;7.32;;
65855;SDS011;52631;42.208;24.656;2023-12-20T03:01:56;14.98;;;7.43;;
65855;SDS011;52631;42.208;24.656;2023-12-20T03:04:22;14.93;;;8.07;;
65855;SDS011;52631;42.208;24.656;2023-12-20T03:06:47;13.63;;;7.82;;
65855;SDS011;52631;42.208;24.656;2023-12-20T03:09:12;17.98;;;8.63;;
65855;SDS011;52631;42.208;24.656;2023-12-20T03:11:38;14.73;;;8.25;;
65855;SDS011;52631;42.208;24.656;2023-12-20T03:14:04;16.80;;;7.50;;
65855;SDS011;52631;42.208;24.656;2023-12-20T03:16:29;18.15;;;8.02;;
65855;SDS011;52631;42.208;24.656;2023-12-20T03:18:56;13.25;;;7.38;;
65855;SDS011;52631;42.208;24.656;2023-12-20T03:21:21;14.93;;;7.22;;
65855;SDS011;52631;42.208;24.656;2023-12-20T03:23:47;16.67;;;8.30;;
65855;SDS011;52631;42.208;24.656;2023-12-20T03:26:12;15.68;;;7.32;;
65855;SDS011;52631;42.208;24.656;2023-12-20T03:28:38;15.23;;;7.63;;
65855;SDS011;52631;42.208;24.656;2023-12-20T03:31:04;14.77;;;8.32;;
65855;SDS011;52631;42.208;24.656;2023-12-20T03:33:29;15.50;;;8.32;;
65855;SDS011;52631;42.208;24.656;2023-12-20T03:35:55;15.85;;;8.05;;
65855;SDS011;52631;42.208;24.656;2023-12-20T03:38:20;12.85;;;7.30;;
65855;SDS011;52631;42.208;24.656;2023-12-20T03:40:46;17.10;;;8.48;;
65855;SDS011;52631;42.208;24.656;2023-12-20T03:43:12;17.02;;;8.52;;
65855;SDS011;52631;42.208;24.656;2023-12-20T03:45:37;17.70;;;8.57;;
65855;SDS011;52631;42.208;24.656;2023-12-20T03:48:02;14.65;;;8.13;;
65855;SDS011;52631;42.208;24.656;2023-12-20T03:50:29;23.55;;;8.82;;
65855;SDS011;52631;42.208;24.656;2023-12-20T03:52:54;15.07;;;7.80;;
65855;SDS011;52631;42.208;24.656;2023-12-20T03:55:19;16.13;;;8.93;;
65855;SDS011;52631;42.208;24.656;2023-12-20T03:57:45;12.60;;;7.53;;
65855;SDS011;52631;42.208;24.656;2023-12-20T04:00:10;16.55;;;9.02;;
65855;SDS011;52631;42.208;24.656;2023-12-20T04:02:37;15.18;;;8.18;;
65855;SDS011;52631;42.208;24.656;2023-12-20T04:05:02;16.35;;;8.70;;
65855;SDS011;52631;42.208;24.656;2023-12-20T04:07:28;18.65;;;9.15;;
65855;SDS011;52631;42.208;24.656;2023-12-20T04:09:54;17.92;;;8.85;;
65855;SDS011;52631;42.208;24.656;2023-12-20T04:12:20;18.45;;;9.63;;
65855;SDS011;52631;42.208;24.656;2023-12-20T04:14:46;15.88;;;8.45;;
65855;SDS011;52631;42.208;24.656;2023-12-20T04:17:11;17.73;;;8.52;;
65855;SDS011;52631;42.208;24.656;2023-12-20T04:19:36;15.68;;;8.25;;
65855;SDS011;52631;42.208;24.656;2023-12-20T04:22:02;19.20;;;9.35;;
65855;SDS011;52631;42.208;24.656;2023-12-20T04:24:27;22.10;;;10.50;;
65855;SDS011;52631;42.208;24.656;2023-12-20T04:26:52;19.60;;;12.13;;
65855;SDS011;52631;42.208;24.656;2023-12-20T04:29:18;23.85;;;13.55;;
65855;SDS011;52631;42.208;24.656;2023-12-20T04:31:43;25.08;;;13.57;;
65855;SDS011;52631;42.208;24.656;2023-12-20T04:34:09;23.73;;;13.85;;
65855;SDS011;52631;42.208;24.656;2023-12-20T04:36:34;19.35;;;11.75;;
65855;SDS011;52631;42.208;24.656;2023-12-20T04:39:00;19.88;;;10.75;;
65855;SDS011;52631;42.208;24.656;2023-12-20T04:41:25;17.67;;;10.60;;
65855;SDS011;52631;42.208;24.656;2023-12-20T04:43:51;17.33;;;10.48;;
65855;SDS011;52631;42.208;24.656;2023-12-20T04:46:17;13.82;;;8.60;;
65855;SDS011;52631;42.208;24.656;2023-12-20T04:48:42;18.55;;;9.88;;
65855;SDS011;52631;42.208;24.656;2023-12-20T04:51:08;17.48;;;9.43;;
65855;SDS011;52631;42.208;24.656;2023-12-20T04:53:33;18.27;;;10.25;;
65855;SDS011;52631;42.208;24.656;2023-12-20T04:55:58;20.90;;;10.95;;
65855;SDS011;52631;42.208;24.656;2023-12-20T04:58:24;22.92;;;11.18;;
65855;SDS011;52631;42.208;24.656;2023-12-20T05:00:49;24.45;;;12.27;;
65855;SDS011;52631;42.208;24.656;2023-12-20T05:03:14;25.20;;;11.77;;
65855;SDS011;52631;42.208;24.656;2023-12-20T05:05:40;18.42;;;9.43;;
65855;SDS011;52631;42.208;24.656;2023-12-20T05:08:05;18.10;;;9.25;;
65855;SDS011;52631;42.208;24.656;2023-12-20T05:10:31;18.83;;;9.95;;
65855;SDS011;52631;42.208;24.656;2023-12-20T05:12:56;15.63;;;8.57;;
65855;SDS011;52631;42.208;24.656;2023-12-20T05:15:22;20.83;;;9.77;;
65855;SDS011;52631;42.208;24.656;2023-12-20T05:17:47;28.67;;;13.15;;
65855;SDS011;52631;42.208;24.656;2023-12-20T05:20:12;23.00;;;10.77;;
65855;SDS011;52631;42.208;24.656;2023-12-20T05:22:38;21.02;;;10.43;;
65855;SDS011;52631;42.208;24.656;2023-12-20T05:25:03;24.92;;;10.18;;
65855;SDS011;52631;42.208;24.656;2023-12-20T05:27:29;24.30;;;10.68;;
65855;SDS011;52631;42.208;24.656;2023-12-20T05:29:54;18.65;;;9.75;;
65855;SDS011;52631;42.208;24.656;2023-12-20T05:32:22;20.27;;;9.93;;
65855;SDS011;52631;42.208;24.656;2023-12-20T05:34:48;19.52;;;11.20;;
65855;SDS011;52631;42.208;24.656;2023-12-20T05:37:13;19.13;;;10.40;;
65855;SDS011;52631;42.208;24.656;2023-12-20T05:39:39;23.10;;;11.63;;
65855;SDS011;52631;42.208;24.656;2023-12-20T05:42:04;18.85;;;10.02;;
65855;SDS011;52631;42.208;24.656;2023-12-20T05:44:30;27.70;;;12.40;;
65855;SDS011;52631;42.208;24.656;2023-12-20T05:46:55;33.15;;;13.82;;
65855;SDS011;52631;42.208;24.656;2023-12-20T05:49:20;30.15;;;13.32;;
65855;SDS011;52631;42.208;24.656;2023-12-20T05:51:46;26.95;;;12.95;;
65855;SDS011;52631;42.208;24.656;2023-12-20T05:54:12;29.35;;;12.07;;
65855;SDS011;52631;42.208;24.656;2023-12-20T05:56:38;21.75;;;10.95;;
65855;SDS011;52631;42.208;24.656;2023-12-20T05:59:03;22.10;;;10.00;;
65855;SDS011;52631;42.208;24.656;2023-12-20T06:01:29;18.48;;;8.75;;
65855;SDS011;52631;42.208;24.656;2023-12-20T06:03:54;16.63;;;7.95;;
65855;SDS011;52631;42.208;24.656;2023-12-20T06:06:19;15.85;;;8.30;;
65855;SDS011;52631;42.208;24.656;2023-12-20T06:08:45;18.70;;;8.35;;
65855;SDS011;52631;42.208;24.656;2023-12-20T06:11:10;15.02;;;8.23;;
65855;SDS011;52631;42.208;24.656;2023-12-20T06:13:36;17.00;;;8.90;;
65855;SDS011;52631;42.208;24.656;2023-12-20T06:16:01;21.48;;;10.48;;
65855;SDS011;52631;42.208;24.656;2023-12-20T06:18:26;19.67;;;10.10;;
65855;SDS011;52631;42.208;24.656;2023-12-20T06:20:52;24.90;;;13.25;;
65855;SDS011;52631;42.208;24.656;2023-12-20T06:23:17;51.30;;;18.17;;
65855;SDS011;52631;42.208;24.656;2023-12-20T06:25:43;43.10;;;16.85;;
65855;SDS011;52631;42.208;24.656;2023-12-20T06:28:09;68.00;;;22.25;;
65855;SDS011;52631;42.208;24.656;2023-12-20T06:30:35;68.03;;;25.15;;
65855;SDS011;52631;42.208;24.656;2023-12-20T06:33:01;65.65;;;24.98;;
65855;SDS011;52631;42.208;24.656;2023-12-20T06:35:26;53.92;;;20.48;;
65855;SDS011;52631;42.208;24.656;2023-12-20T06:37:51;56.75;;;25.73;;
65855;SDS011;52631;42.208;24.656;2023-12-20T06:40:17;56.25;;;20.95;;
65855;SDS011;52631;42.208;24.656;2023-12-20T06:42:43;56.13;;;23.17;;
65855;SDS011;52631;42.208;24.656;2023-12-20T06:45:09;50.70;;;21.75;;
65855;SDS011;52631;42.208;24.656;2023-12-20T06:47:35;49.30;;;21.98;;
65855;SDS011;52631;42.208;24.656;2023-12-20T06:50:00;54.67;;;23.85;;
65855;SDS011;52631;42.208;24.656;2023-12-20T06:52:26;52.55;;;22.77;;
65855;SDS011;52631;42.208;24.656;2023-12-20T06:54:51;44.65;;;20.60;;
65855;SDS011;52631;42.208;24.656;2023-12-20T06:57:17;36.95;;;18.67;;
65855;SDS011;52631;42.208;24.656;2023-12-20T06:59:42;36.58;;;17.58;;
65855;SDS011;52631;42.208;24.656;2023-12-20T07:02:09;29.70;;;16.23;;
65855;SDS011;52631;42.208;24.656;2023-12-20T07:04:38;28.45;;;17.52;;
65855;SDS011;52631;42.208;24.656;2023-12-20T07:07:05;28.90;;;15.95;;
65855;SDS011;52631;42.208;24.656;2023-12-20T07:09:30;42.42;;;17.88;;
65855;SDS011;52631;42.208;24.656;2023-12-20T07:11:55;51.00;;;22.38;;
65855;SDS011;52631;42.208;24.656;2023-12-20T07:14:21;51.05;;;21.73;;
65855;SDS011;52631;42.208;24.656;2023-12-20T07:16:46;44.08;;;21.38;;
65855;SDS011;52631;42.208;24.656;2023-12-20T07:19:12;31.02;;;14.10;;
65855;SDS011;52631;42.208;24.656;2023-12-20T07:21:38;46.63;;;22.48;;
65855;SDS011;52631;42.208;24.656;2023-12-20T07:24:03;29.55;;;14.93;;
65855;SDS011;52631;42.208;24.656;2023-12-20T07:26:29;31.95;;;16.55;;
65855;SDS011;52631;42.208;24.656;2023-12-20T07:28:54;25.60;;;13.75;;
65855;SDS011;52631;42.208;24.656;2023-12-20T07:31:19;24.40;;;12.13;;
65855;SDS011;52631;42.208;24.656;2023-12-20T07:33:45;27.90;;;13.85;;
65855;SDS011;52631;42.208;24.656;2023-12-20T07:36:11;21.05;;;11.18;;
65855;SDS011;52631;42.208;24.656;2023-12-20T07:38:37;21.65;;;12.88;;
65855;SDS011;52631;42.208;24.656;2023-12-20T07:41:02;21.70;;;12.32;;
65855;SDS011;52631;42.208;24.656;2023-12-20T07:43:28;29.58;;;13.40;;
65855;SDS011;52631;42.208;24.656;2023-12-20T07:45:53;24.55;;;11.68;;
65855;SDS011;52631;42.208;24.656;2023-12-20T07:48:19;25.10;;;12.77;;
65855;SDS011;52631;42.208;24.656;2023-12-20T07:50:44;28.63;;;11.90;;
65855;SDS011;52631;42.208;24.656;2023-12-20T07:53:10;41.92;;;17.27;;
65855;SDS011;52631;42.208;24.656;2023-12-20T07:55:35;33.55;;;14.85;;
65855;SDS011;52631;42.208;24.656;2023-12-20T07:58:00;23.90;;;12.30;;
65855;SDS011;52631;42.208;24.656;2023-12-20T08:00:26;25.95;;;12.88;;
65855;SDS011;52631;42.208;24.656;2023-12-20T08:02:52;20.38;;;10.98;;
65855;SDS011;52631;42.208;24.656;2023-12-20T08:05:17;27.42;;;13.82;;
65855;SDS011;52631;42.208;24.656;2023-12-20T08:07:43;27.67;;;13.82;;
65855;SDS011;52631;42.208;24.656;2023-12-20T08:10:08;31.92;;;14.27;;
65855;SDS011;52631;42.208;24.656;2023-12-20T08:12:33;24.52;;;12.93;;
65855;SDS011;52631;42.208;24.656;2023-12-20T08:14:59;20.30;;;12.48;;
65855;SDS011;52631;42.208;24.656;2023-12-20T08:17:25;28.10;;;14.20;;
65855;SDS011;52631;42.208;24.656;2023-12-20T08:19:50;25.80;;;13.85;;
65855;SDS011;52631;42.208;24.656;2023-12-20T08:22:16;27.95;;;12.55;;
65855;SDS011;52631;42.208;24.656;2023-12-20T08:24:41;22.50;;;12.27;;
65855;SDS011;52631;42.208;24.656;2023-12-20T08:27:07;22.23;;;11.75;;
65855;SDS011;52631;42.208;24.656;2023-12-20T08:29:32;17.77;;;9.50;;
65855;SDS011;52631;42.208;24.656;2023-12-20T08:31:59;19.00;;;10.65;;
65855;SDS011;52631;42.208;24.656;2023-12-20T08:34:25;19.63;;;10.77;;
65855;SDS011;52631;42.208;24.656;2023-12-20T08:36:50;18.48;;;9.10;;
65855;SDS011;52631;42.208;24.656;2023-12-20T08:39:16;19.33;;;10.68;;
65855;SDS011;52631;42.208;24.656;2023-12-20T08:41:41;20.55;;;10.82;;
65855;SDS011;52631;42.208;24.656;2023-12-20T08:44:08;18.48;;;10.45;;
65855;SDS011;52631;42.208;24.656;2023-12-20T08:46:34;18.30;;;10.25;;
65855;SDS011;52631;42.208;24.656;2023-12-20T08:49:00;19.25;;;11.30;;
65855;SDS011;52631;42.208;24.656;2023-12-20T08:51:26;20.42;;;11.45;;
65855;SDS011;52631;42.208;24.656;2023-12-20T08:53:51;19.40;;;11.15;;
65855;SDS011;52631;42.208;24.656;2023-12-20T08:56:17;20.23;;;11.70;;
65855;SDS011;52631;42.208;24.656;2023-12-20T08:58:43;20.58;;;11.65;;
65855;SDS011;52631;42.208;24.656;2023-12-20T09:01:08;20.42;;;11.98;;
65855;SDS011;52631;42.208;24.656;2023-12-20T09:03:34;19.52;;;10.43;;
65855;SDS011;52631;42.208;24.656;2023-12-20T09:05:59;20.35;;;10.70;;
65855;SDS011;52631;42.208;24.656;2023-12-20T09:08:25;18.92;;;10.15;;
65855;SDS011;52631;42.208;24.656;2023-12-20T09:10:50;17.25;;;10.73;;
65855;SDS011;52631;42.208;24.656;2023-12-20T09:13:16;17.70;;;10.60;;
65855;SDS011;52631;42.208;24.656;2023-12-20T09:15:41;19.35;;;10.23;;
65855;SDS011;52631;42.208;24.656;2023-12-20T09:18:07;17.92;;;10.85;;
65855;SDS011;52631;42.208;24.656;2023-12-20T09:20:33;22.15;;;11.15;;
65855;SDS011;52631;42.208;24.656;2023-12-20T09:22:59;16.10;;;10.57;;
65855;SDS011;52631;42.208;24.656;2023-12-20T09:25:24;17.20;;;10.73;;
65855;SDS011;52631;42.208;24.656;2023-12-20T09:27:51;17.70;;;10.48;;
65855;SDS011;52631;42.208;24.656;2023-12-20T09:30:17;16.50;;;10.27;;
65855;SDS011;52631;42.208;24.656;2023-12-20T09:32:43;17.02;;;9.15;;
65855;SDS011;52631;42.208;24.656;2023-12-20T09:35:08;16.95;;;9.20;;
65855;SDS011;52631;42.208;24.656;2023-12-20T09:37:33;15.13;;;10.10;;
65855;SDS011;52631;42.208;24.656;2023-12-20T09:39:59;14.50;;;8.35;;
65855;SDS011;52631;42.208;24.656;2023-12-20T09:42:25;15.43;;;9.02;;
65855;SDS011;52631;42.208;24.656;2023-12-20T09:44:56;14.07;;;8.98;;
65855;SDS011;52631;42.208;24.656;2023-12-20T09:47:24;13.18;;;7.45;;
65855;SDS011;52631;42.208;24.656;2023-12-20T09:49:50;13.80;;;7.70;;
65855;SDS011;52631;42.208;24.656;2023-12-20T10:02:34;10.95;;;6.60;;
65855;SDS011;52631;42.208;24.656;2023-12-20T10:04:59;21.33;;;8.15;;
65855;SDS011;52631;42.208;24.656;2023-12-20T10:07:25;11.27;;;6.82;;
65855;SDS011;52631;42.208;24.656;2023-12-20T10:09:51;12.18;;;7.07;;
65855;SDS011;52631;42.208;24.656;2023-12-20T10:12:19;10.88;;;6.68;;
65855;SDS011;52631;42.208;24.656;2023-12-20T10:14:44;11.00;;;6.97;;
65855;SDS011;52631;42.208;24.656;2023-12-20T10:17:10;11.98;;;7.10;;
65855;SDS011;52631;42.208;24.656;2023-12-20T10:22:41;11.80;;;7.43;;
65855;SDS011;52631;42.208;24.656;2023-12-20T10:25:07;13.63;;;7.20;;
65855;SDS011;52631;42.208;24.656;2023-12-20T10:27:32;15.65;;;7.97;;
65855;SDS011;52631;42.208;24.656;2023-12-20T10:29:58;12.57;;;7.72;;
65855;SDS011;52631;42.208;24.656;2023-12-20T10:32:25;11.77;;;7.70;;
65855;SDS011;52631;42.208;24.656;2023-12-20T10:34:52;13.50;;;7.93;;
65855;SDS011;52631;42.208;24.656;2023-12-20T10:37:18;12.60;;;8.50;;
65855;SDS011;52631;42.208;24.656;2023-12-20T10:39:44;14.57;;;9.65;;
65855;SDS011;52631;42.208;24.656;2023-12-20T10:42:14;22.38;;;11.55;;
65855;SDS011;52631;42.208;24.656;2023-12-20T10:44:41;18.85;;;11.27;;
65855;SDS011;52631;42.208;24.656;2023-12-20T10:47:06;19.40;;;11.55;;
65855;SDS011;52631;42.208;24.656;2023-12-20T10:49:31;24.85;;;13.32;;
65855;SDS011;52631;42.208;24.656;2023-12-20T10:52:01;24.75;;;13.05;;
65855;SDS011;52631;42.208;24.656;2023-12-20T10:54:27;24.50;;;12.95;;
65855;SDS011;52631;42.208;24.656;2023-12-20T10:56:53;24.40;;;14.05;;
65855;SDS011;52631;42.208;24.656;2023-12-20T10:59:19;22.00;;;12.88;;
65855;SDS011;52631;42.208;24.656;2023-12-20T11:01:45;26.25;;;13.25;;
65855;SDS011;52631;42.208;24.656;2023-12-20T11:04:13;25.20;;;12.57;;
65855;SDS011;52631;42.208;24.656;2023-12-20T11:06:49;22.17;;;11.88;;
65855;SDS011;52631;42.208;24.656;2023-12-20T11:14:36;19.67;;;11.63;;
65855;SDS011;52631;42.208;24.656;2023-12-20T11:17:08;20.90;;;11.57;;
65855;SDS011;52631;42.208;24.656;2023-12-20T11:22:25;17.42;;;10.27;;
65855;SDS011;52631;42.208;24.656;2023-12-20T11:24:53;21.40;;;10.77;;
65855;SDS011;52631;42.208;24.656;2023-12-20T11:27:19;20.40;;;10.40;;
65855;SDS011;52631;42.208;24.656;2023-12-20T11:29:55;19.13;;;9.88;;
65855;SDS011;52631;42.208;24.656;2023-12-20T11:32:27;19.48;;;10.52;;
65855;SDS011;52631;42.208;24.656;2023-12-20T11:35:36;18.65;;;10.80;;
65855;SDS011;52631;42.208;24.656;2023-12-20T11:37:43;18.35;;;10.60;;
65855;SDS011;52631;42.208;24.656;2023-12-20T11:40:15;20.58;;;11.00;;
65855;SDS011;52631;42.208;24.656;2023-12-20T11:42:42;20.20;;;10.50;;
65855;SDS011;52631;42.208;24.656;2023-12-20T11:45:14;21.98;;;10.13;;
65855;SDS011;52631;42.208;24.656;2023-12-20T11:47:46;19.10;;;11.05;;
65855;SDS011;52631;42.208;24.656;2023-12-20T11:50:11;20.70;;;10.25;;
65855;SDS011;52631;42.208;24.656;2023-12-20T11:52:37;24.02;;;11.55;;
65855;SDS011;52631;42.208;24.656;2023-12-20T11:55:02;21.20;;;10.93;;
65855;SDS011;52631;42.208;24.656;2023-12-20T11:57:29;20.33;;;11.18;;
65855;SDS011;52631;42.208;24.656;2023-12-20T11:59:55;25.30;;;11.77;;
65855;SDS011;52631;42.208;24.656;2023-12-20T12:02:21;20.48;;;11.68;;
65855;SDS011;52631;42.208;24.656;2023-12-20T12:04:48;19.88;;;12.05;;
65855;SDS011;52631;42.208;24.656;2023-12-20T12:07:13;24.67;;;11.90;;
65855;SDS011;52631;42.208;24.656;2023-12-20T12:09:39;20.88;;;11.38;;
65855;SDS011;52631;42.208;24.656;2023-12-20T12:12:04;25.13;;;12.27;;
65855;SDS011;52631;42.208;24.656;2023-12-20T12:14:30;19.15;;;11.85;;
65855;SDS011;52631;42.208;24.656;2023-12-20T12:16:56;20.92;;;10.98;;
65855;SDS011;52631;42.208;24.656;2023-12-20T12:19:24;19.75;;;11.30;;
65855;SDS011;52631;42.208;24.656;2023-12-20T12:21:51;18.77;;;10.88;;
65855;SDS011;52631;42.208;24.656;2023-12-20T12:24:20;21.92;;;11.68;;
65855;SDS011;52631;42.208;24.656;2023-12-20T12:26:50;32.15;;;17.75;;
65855;SDS011;52631;42.208;24.656;2023-12-20T12:29:16;30.52;;;17.85;;
65855;SDS011;52631;42.208;24.656;2023-12-20T12:31:42;21.30;;;12.15;;
65855;SDS011;52631;42.208;24.656;2023-12-20T12:34:07;20.27;;;11.25;;
65855;SDS011;52631;42.208;24.656;2023-12-20T12:36:34;22.50;;;10.85;;
65855;SDS011;52631;42.208;24.656;2023-12-20T12:39:02;18.58;;;11.13;;
65855;SDS011;52631;42.208;24.656;2023-12-20T12:41:29;21.23;;;11.93;;
65855;SDS011;52631;42.208;24.656;2023-12-20T12:43:54;17.00;;;10.43;;
65855;SDS011;52631;42.208;24.656;2023-12-20T12:46:19;14.07;;;8.80;;
65855;SDS011;52631;42.208;24.656;2023-12-20T12:48:45;19.80;;;10.25;;
65855;SDS011;52631;42.208;24.656;2023-12-20T12:51:11;20.73;;;10.02;;
65855;SDS011;52631;42.208;24.656;2023-12-20T12:53:38;16.52;;;10.32;;
65855;SDS011;52631;42.208;24.656;2023-12-20T12:56:04;27.23;;;15.63;;
65855;SDS011;52631;42.208;24.656;2023-12-20T12:58:29;19.45;;;11.38;;
65855;SDS011;52631;42.208;24.656;2023-12-20T13:00:55;19.70;;;11.68;;
65855;SDS011;52631;42.208;24.656;2023-12-20T13:03:20;15.70;;;9.60;;
65855;SDS011;52631;42.208;24.656;2023-12-20T13:05:46;17.55;;;9.63;;
65855;SDS011;52631;42.208;24.656;2023-12-20T13:08:13;19.73;;;12.27;;
65855;SDS011;52631;42.208;24.656;2023-12-20T13:10:39;16.83;;;12.07;;
65855;SDS011;52631;42.208;24.656;2023-12-20T13:13:04;17.73;;;10.32;;
65855;SDS011;52631;42.208;24.656;2023-12-20T13:15:29;17.30;;;9.75;;
65855;SDS011;52631;42.208;24.656;2023-12-20T13:17:55;16.70;;;10.25;;
65855;SDS011;52631;42.208;24.656;2023-12-20T13:20:21;27.77;;;13.85;;
65855;SDS011;52631;42.208;24.656;2023-12-20T13:22:47;30.52;;;17.35;;
65855;SDS011;52631;42.208;24.656;2023-12-20T13:25:13;21.85;;;12.63;;
65855;SDS011;52631;42.208;24.656;2023-12-20T13:27:38;18.73;;;10.75;;
65855;SDS011;52631;42.208;24.656;2023-12-20T13:30:04;23.20;;;12.82;;
65855;SDS011;52631;42.208;24.656;2023-12-20T13:32:30;19.23;;;12.40;;
65855;SDS011;52631;42.208;24.656;2023-12-20T13:34:56;28.08;;;13.32;;
65855;SDS011;52631;42.208;24.656;2023-12-20T13:37:21;62.08;;;33.25;;
65855;SDS011;52631;42.208;24.656;2023-12-20T13:39:47;31.23;;;17.13;;
65855;SDS011;52631;42.208;24.656;2023-12-20T13:42:12;22.83;;;13.57;;
65855;SDS011;52631;42.208;24.656;2023-12-20T13:44:38;23.63;;;13.70;;
65855;SDS011;52631;42.208;24.656;2023-12-20T13:47:03;31.35;;;15.15;;
65855;SDS011;52631;42.208;24.656;2023-12-20T13:49:29;23.67;;;12.27;;
65855;SDS011;52631;42.208;24.656;2023-12-20T13:51:54;22.33;;;12.25;;
65855;SDS011;52631;42.208;24.656;2023-12-20T13:54:20;25.83;;;13.00;;
65855;SDS011;52631;42.208;24.656;2023-12-20T13:56:47;21.30;;;12.40;;
65855;SDS011;52631;42.208;24.656;2023-12-20T13:59:12;23.80;;;12.25;;
65855;SDS011;52631;42.208;24.656;2023-12-20T14:01:39;20.48;;;12.30;;
65855;SDS011;52631;42.208;24.656;2023-12-20T14:04:04;30.20;;;15.35;;
65855;SDS011;52631;42.208;24.656;2023-12-20T14:06:30;29.27;;;15.45;;
65855;SDS011;52631;42.208;24.656;2023-12-20T14:08:55;28.75;;;17.45;;
65855;SDS011;52631;42.208;24.656;2023-12-20T14:11:20;30.15;;;16.83;;
65855;SDS011;52631;42.208;24.656;2023-12-20T14:13:46;29.90;;;17.15;;
65855;SDS011;52631;42.208;24.656;2023-12-20T14:16:11;34.30;;;19.88;;
65855;SDS011;52631;42.208;24.656;2023-12-20T14:18:37;33.90;;;18.75;;
65855;SDS011;52631;42.208;24.656;2023-12-20T14:21:05;28.67;;;16.70;;
65855;SDS011;52631;42.208;24.656;2023-12-20T14:23:31;30.15;;;16.42;;
65855;SDS011;52631;42.208;24.656;2023-12-20T14:25:58;26.58;;;14.65;;
65855;SDS011;52631;42.208;24.656;2023-12-20T14:28:24;27.90;;;15.48;;